Time;durP1;ratioP1;P1;durP2;ratioP2;P2;SDS_P1;SDS_P2;PMS_P1;PMS_P2;Temp;Humidity;BMP_temperature;BMP_pressure;BME280_temperature;BME280_humidity;BME280_pressure;Samples;Min_cycle;Max_cycle;Signal;HPM_P1;HPM_P2
2022/08/21 00:02:46;;;;;;;2.67;1.10;;;;;;;17.15;87.12;101397.59;6251202;28;20049;-77
2022/08/21 00:05:50;;;;;;;3.70;1.08;;;;;;;17.09;87.28;101401.53;6250734;28;20486;-77
2022/08/21 00:08:51;;;;;;;2.50;0.73;;;;;;;17.07;87.60;101390.16;6251038;28;20424;-77
2022/08/21 00:11:54;;;;;;;1.50;0.80;;;;;;;16.98;88.22;101394.31;6250817;28;20049;-77
2022/08/21 00:14:56;;;;;;;4.82;1.00;;;;;;;16.94;88.87;101398.16;6250303;28;20420;-76
2022/08/21 00:17:57;;;;;;;2.13;1.23;;;;;;;16.82;89.28;101393.69;6250960;28;20049;-77
2022/08/21 00:20:58;;;;;;;2.90;1.42;;;;;;;16.80;90.25;101406.19;6249891;28;20061;-76
2022/08/21 00:24:00;;;;;;;6.72;1.40;;;;;;;16.84;89.67;101402.38;6250111;28;20053;-77
2022/08/21 00:27:03;;;;;;;2.70;0.98;;;;;;;16.82;89.94;101392.84;6250446;28;20056;-77
2022/08/21 00:30:08;;;;;;;1.40;0.80;;;;;;;16.77;91.18;101381.69;6250280;28;20053;-76
2022/08/21 00:33:09;;;;;;;4.45;1.25;;;;;;;16.75;90.79;101387.09;6250576;28;20049;-76
2022/08/21 00:36:11;;;;;;;3.10;1.10;;;;;;;16.73;91.19;101381.91;6250006;28;20046;-77
2022/08/21 00:39:12;;;;;;;3.05;0.85;;;;;;;16.74;90.96;101385.41;6250340;28;20420;-76
2022/08/21 00:42:15;;;;;;;4.07;1.20;;;;;;;16.75;91.37;101384.44;6249844;28;20460;-77
2022/08/21 00:45:17;;;;;;;2.35;1.25;;;;;;;16.77;90.20;101387.00;6250403;28;20064;-78
2022/08/21 00:48:18;;;;;;;2.35;1.10;;;;;;;16.72;91.02;101387.31;6250831;28;20723;-78
2022/08/21 00:51:26;;;;;;;1.30;1.08;;;;;;;16.68;91.04;101380.50;6250330;28;20053;-78
2022/08/21 00:54:30;;;;;;;1.35;1.25;;;;;;;16.66;91.36;101380.56;6250550;28;20548;-78
2022/08/21 00:57:39;;;;;;;4.07;1.38;;;;;;;16.59;91.17;101383.78;6250252;28;20056;-77
2022/08/21 01:00:43;;;;;;;1.40;0.97;;;;;;;16.55;91.44;101391.09;6250238;28;20060;-77
2022/08/21 01:03:46;;;;;;;3.22;1.27;;;;;;;16.45;93.01;101382.06;6250692;28;20057;-78
2022/08/21 01:06:47;;;;;;;4.15;1.30;;;;;;;16.44;93.52;101385.66;6250270;28;20421;-78
2022/08/21 01:09:49;;;;;;;1.85;1.13;;;;;;;16.43;92.65;101391.91;6250124;28;20060;-78
2022/08/21 01:12:54;;;;;;;2.42;1.17;;;;;;;16.42;92.82;101388.41;6249957;28;20501;-77
2022/08/21 01:15:59;;;;;;;3.17;1.40;;;;;;;16.37;93.55;101389.69;6250022;28;20208;-78
2022/08/21 01:19:00;;;;;;;2.67;1.15;;;;;;;16.34;94.31;101388.06;6250255;28;20099;-78
2022/08/21 01:22:04;;;;;;;2.10;1.30;;;;;;;16.35;93.39;101387.16;6249453;28;20052;-78
2022/08/21 01:25:08;;;;;;;3.97;0.70;;;;;;;16.33;94.03;101382.88;6250034;28;20386;-78
2022/08/21 01:28:14;;;;;;;2.42;1.30;;;;;;;16.27;93.78;101385.97;6249770;28;20050;-77
2022/08/21 01:31:18;;;;;;;1.23;0.80;;;;;;;16.23;94.22;101385.31;6249285;28;20056;-78
2022/08/21 01:34:20;;;;;;;0.93;0.80;;;;;;;16.23;93.75;101393.25;6249493;28;20054;-78
2022/08/21 01:37:23;;;;;;;2.97;0.90;;;;;;;16.21;94.16;101387.19;6249218;28;20048;-78
2022/08/21 01:40:24;;;;;;;1.67;1.20;;;;;;;16.18;94.64;101390.91;6249230;28;20064;-77
2022/08/21 01:43:26;;;;;;;4.03;1.33;;;;;;;16.11;95.22;101383.47;6249392;28;20448;-77
2022/08/21 01:46:27;;;;;;;7.80;1.17;;;;;;;16.10;95.05;101387.06;6249290;28;20420;-77
2022/08/21 01:49:29;;;;;;;1.55;0.70;;;;;;;16.07;94.48;101376.66;6249623;28;20498;-77
2022/08/21 01:52:36;;;;;;;1.08;1.00;;;;;;;15.99;95.24;101371.88;6249022;28;20256;-78
2022/08/21 01:55:37;;;;;;;1.92;0.90;;;;;;;15.97;95.79;101364.00;6248818;28;20411;-78
2022/08/21 01:58:40;;;;;;;1.02;0.85;;;;;;;15.95;96.47;101365.94;6248993;28;20056;-78
2022/08/21 02:01:42;;;;;;;1.67;1.00;;;;;;;15.93;95.81;101359.00;6248405;28;20128;-78
2022/08/21 02:04:43;;;;;;;1.10;0.73;;;;;;;15.91;95.62;101358.28;6248806;28;20053;-77
2022/08/21 02:07:49;;;;;;;1.85;0.90;;;;;;;15.86;96.62;101361.22;6248747;28;20499;-78
2022/08/21 02:10:52;;;;;;;3.25;1.42;;;;;;;15.92;96.66;101362.63;6248895;28;20429;-78
2022/08/21 02:13:54;;;;;;;2.20;1.02;;;;;;;15.91;96.10;101353.81;6248527;28;20088;-77
2022/08/21 02:16:55;;;;;;;1.85;0.90;;;;;;;15.92;96.64;101350.22;6248575;28;20053;-77
2022/08/21 02:19:56;;;;;;;2.45;1.00;;;;;;;15.96;96.16;101349.06;6248899;28;20053;-78
2022/08/21 02:23:00;;;;;;;1.20;0.93;;;;;;;16.02;96.43;101346.94;6248766;28;20057;-78
2022/08/21 02:26:04;;;;;;;1.40;0.90;;;;;;;16.06;95.99;101343.16;6248563;28;20061;-77
2022/08/21 02:29:06;;;;;;;4.30;1.00;;;;;;;16.10;96.26;101342.00;6245616;28;20057;-78
2022/08/21 02:32:08;;;;;;;1.85;1.05;;;;;;;16.09;95.75;101340.31;6248287;28;20057;-78
2022/08/21 02:35:10;;;;;;;2.20;1.02;;;;;;;16.04;95.33;101347.72;6248075;28;20060;-78
2022/08/21 02:38:16;;;;;;;1.23;0.70;;;;;;;15.97;96.00;101350.75;6229983;28;20053;-77
2022/08/21 02:41:20;;;;;;;4.13;1.08;;;;;;;16.05;97.74;101352.91;6223632;28;20068;-78
2022/08/21 02:44:21;;;;;;;0.90;0.77;;;;;;;16.16;96.15;101350.38;6222935;28;20050;-78
2022/08/21 02:47:23;;;;;;;1.52;0.82;;;;;;;16.24;96.48;101344.56;6223488;28;20544;-78
2022/08/21 02:50:29;;;;;;;3.03;1.00;;;;;;;16.31;95.06;101343.22;6223451;28;20054;-78
2022/08/21 02:53:34;;;;;;;3.38;1.00;;;;;;;16.29;95.03;101339.78;6223516;28;20046;-78
2022/08/21 02:56:35;;;;;;;2.63;0.98;;;;;;;16.24;94.96;101340.09;6223315;28;20206;-78
2022/08/21 02:59:36;;;;;;;1.83;0.90;;;;;;;16.29;95.37;101333.63;6248030;28;20508;-78
2022/08/21 03:02:38;;;;;;;2.78;1.00;;;;;;;16.38;94.58;101333.88;6247542;28;20053;-78
2022/08/21 03:05:39;;;;;;;2.35;1.23;;;;;;;16.40;94.84;101331.97;6247709;28;20046;-78
2022/08/21 03:08:44;;;;;;;2.63;0.93;;;;;;;16.45;94.34;101318.38;6247845;28;20049;-78
2022/08/21 03:11:46;;;;;;;3.63;0.90;;;;;;;16.46;94.68;101317.44;6248108;28;20061;-78
2022/08/21 03:14:47;;;;;;;2.15;0.90;;;;;;;16.47;93.54;101319.97;6247521;28;20136;-78
2022/08/21 03:17:49;;;;;;;1.38;0.88;;;;;;;16.49;94.76;101319.88;6247865;28;20133;-77
2022/08/21 03:20:50;;;;;;;3.70;1.05;;;;;;;16.48;94.40;101320.81;6247414;28;20046;-78
2022/08/21 03:23:53;;;;;;;1.92;1.00;;;;;;;16.53;93.40;101321.34;6247338;28;20049;-78
2022/08/21 03:26:55;;;;;;;2.53;1.13;;;;;;;16.59;93.00;101314.78;6247634;28;20179;-78
2022/08/21 03:29:56;;;;;;;1.65;0.77;;;;;;;16.64;92.75;101320.63;6247249;28;20357;-78
2022/08/21 03:32:58;;;;;;;2.60;1.30;;;;;;;16.66;93.50;101314.22;6247832;28;20049;-77
2022/08/21 03:36:02;;;;;;;3.15;1.10;;;;;;;16.63;93.97;101317.13;6247229;28;20535;-78
2022/08/21 03:39:05;;;;;;;2.72;0.90;;;;;;;16.64;93.40;101321.47;6247385;28;20076;-78
2022/08/21 03:42:07;;;;;;;3.95;0.90;;;;;;;16.68;92.23;101320.28;6247192;28;20096;-78
2022/08/21 03:45:09;;;;;;;2.50;1.20;;;;;;;16.63;91.52;101319.78;6247219;28;20437;-78
2022/08/21 03:48:11;;;;;;;2.08;0.90;;;;;;;16.60;91.20;101325.28;6247403;28;20069;-78
2022/08/21 03:51:13;;;;;;;4.75;1.30;;;;;;;16.61;93.22;101331.44;6246919;28;20524;-78
2022/08/21 03:54:16;;;;;;;1.10;0.85;;;;;;;16.62;93.66;101334.00;6246843;28;20046;-78
2022/08/21 03:57:18;;;;;;;2.05;1.23;;;;;;;16.59;96.28;101328.06;6250506;28;20048;-78
2022/08/21 04:00:21;;;;;;;5.70;1.17;;;;;;;16.61;95.72;101324.31;6251363;28;20142;-78
2022/08/21 04:03:23;;;;;;;3.13;1.00;;;;;;;16.65;96.46;101335.56;6252235;28;20049;-78
2022/08/21 04:06:26;;;;;;;4.72;1.10;;;;;;;16.69;97.03;101340.56;6251399;28;20050;-78
2022/08/21 04:09:29;;;;;;;1.33;1.02;;;;;;;16.67;96.62;101331.88;6252118;28;20063;-78
2022/08/21 04:12:31;;;;;;;3.10;1.13;;;;;;;16.68;96.51;101340.69;6251365;28;20138;-78
2022/08/21 04:15:33;;;;;;;3.28;1.13;;;;;;;16.68;95.91;101344.19;6251177;28;20054;-78
2022/08/21 04:18:35;;;;;;;1.10;0.90;;;;;;;16.70;96.25;101346.72;6251681;28;20049;-78
2022/08/21 04:21:38;;;;;;;1.08;0.82;;;;;;;16.74;96.30;101341.13;6250950;28;20056;-79
2022/08/21 04:24:41;;;;;;;1.17;0.82;;;;;;;16.74;94.44;101350.91;6251251;28;20421;-78
2022/08/21 04:27:42;;;;;;;1.90;1.00;;;;;;;16.74;94.22;101342.94;6251356;28;20053;-77
2022/08/21 04:30:44;;;;;;;2.08;1.20;;;;;;;16.77;94.36;101344.53;6251611;28;20056;-79
2022/08/21 04:33:46;;;;;;;1.55;1.17;;;;;;;16.79;95.07;101346.09;6262691;28;20049;-78
2022/08/21 04:36:47;;;;;;;2.20;1.13;;;;;;;16.79;94.03;101348.75;6262258;28;20048;-78
2022/08/21 04:39:50;;;;;;;4.80;1.30;;;;;;;16.79;93.65;101350.56;6275565;28;20049;-78
2022/08/21 04:42:53;;;;;;;2.35;1.10;;;;;;;16.76;93.53;101353.44;6276150;28;20048;-78
2022/08/21 04:45:54;;;;;;;1.95;1.05;;;;;;;16.74;94.11;101350.91;6275734;28;20060;-78
2022/08/21 04:48:56;;;;;;;2.83;1.55;;;;;;;16.72;93.35;101356.31;6275951;28;20048;-78
2022/08/21 04:51:57;;;;;;;2.08;1.08;;;;;;;16.76;93.72;101358.75;6275831;28;20420;-78
2022/08/21 04:55:01;;;;;;;3.08;1.10;;;;;;;16.76;93.64;101354.31;6275395;28;20604;-78
2022/08/21 04:58:03;;;;;;;4.18;1.00;;;;;;;16.76;93.37;101354.31;6270630;28;20041;-79
2022/08/21 05:01:11;;;;;;;1.90;1.08;;;;;;;16.79;93.32;101353.22;6266482;28;20045;-78
2022/08/21 05:04:17;;;;;;;2.30;1.08;;;;;;;16.79;93.54;101362.03;6275359;28;20045;-78
2022/08/21 05:07:21;;;;;;;1.83;1.02;;;;;;;16.82;93.04;101359.19;6274794;28;20156;-78
2022/08/21 05:10:24;;;;;;;3.58;1.15;;;;;;;16.80;92.64;101361.06;6275033;28;20041;-78
2022/08/21 05:13:25;;;;;;;1.40;0.82;;;;;;;16.82;92.58;101367.16;6275027;28;20416;-77
2022/08/21 05:16:27;;;;;;;2.53;1.25;;;;;;;16.83;92.19;101363.53;6275481;28;20049;-79
2022/08/21 05:19:29;;;;;;;2.70;0.90;;;;;;;16.85;92.12;101369.59;6276404;28;20135;-78
2022/08/21 05:22:30;;;;;;;1.85;1.13;;;;;;;16.88;92.67;101371.16;6275867;28;20519;-78
2022/08/21 05:25:33;;;;;;;1.80;1.15;;;;;;;16.92;92.31;101370.84;6275836;28;20049;-78
2022/08/21 05:28:34;;;;;;;1.48;1.08;;;;;;;16.94;92.05;101382.22;6275658;28;20053;-78
2022/08/21 05:31:35;;;;;;;1.63;0.90;;;;;;;16.91;91.42;101376.28;6274410;28;20045;-78
2022/08/21 05:34:37;;;;;;;1.73;1.13;;;;;;;16.91;91.76;101370.97;6274307;28;20056;-78
2022/08/21 05:37:38;;;;;;;1.38;0.70;;;;;;;16.94;91.32;101378.69;6275061;28;20049;-78
2022/08/21 05:40:41;;;;;;;1.98;0.90;;;;;;;16.90;91.53;101383.41;6274043;28;20053;-79
2022/08/21 05:43:42;;;;;;;1.50;0.95;;;;;;;16.88;92.01;101379.13;6274201;28;20053;-79
2022/08/21 05:46:44;;;;;;;1.77;0.90;;;;;;;16.87;92.24;101383.59;6273842;28;20509;-78
2022/08/21 05:49:45;;;;;;;1.92;0.90;;;;;;;16.88;92.63;101381.78;6274051;28;20049;-78
2022/08/21 05:52:49;;;;;;;2.35;0.88;;;;;;;16.87;93.88;101388.06;6274500;28;20057;-78
2022/08/21 05:55:52;;;;;;;1.65;0.95;;;;;;;16.86;94.96;101381.06;6273936;28;20045;-78
2022/08/21 05:58:54;;;;;;;4.32;1.35;;;;;;;16.84;95.23;101389.09;6273941;28;20128;-78
2022/08/21 06:01:55;;;;;;;2.88;1.05;;;;;;;16.85;94.91;101382.88;6257726;28;20523;-79
2022/08/21 06:04:57;;;;;;;2.75;1.40;;;;;;;16.82;95.52;101383.06;6263996;28;20060;-77
2022/08/21 06:07:58;;;;;;;1.17;0.95;;;;;;;16.84;96.36;101381.16;6265318;28;20055;-78
2022/08/21 06:11:02;;;;;;;5.57;1.35;;;;;;;16.86;96.08;101381.91;6273510;28;20057;-77
2022/08/21 06:14:06;;;;;;;2.78;1.50;;;;;;;16.84;96.87;101380.31;6273098;28;20528;-80
2022/08/21 06:17:11;;;;;;;6.70;1.55;;;;;;;16.86;98.31;101381.06;6273526;28;20182;-79
2022/08/21 06:20:12;;;;;;;3.00;1.98;;;;;;;16.88;98.20;101377.31;6264079;28;20049;-78
2022/08/21 06:23:13;;;;;;;2.72;1.67;;;;;;;16.92;98.22;101378.81;6269930;28;20075;-78
2022/08/21 06:26:16;;;;;;;4.03;1.73;;;;;;;16.96;98.16;101382.94;6272889;28;20056;-78
2022/08/21 06:29:19;;;;;;;2.33;1.50;;;;;;;17.02;99.33;101378.16;6273711;28;20044;-78
2022/08/21 06:32:20;;;;;;;3.80;1.50;;;;;;;17.08;99.19;101385.69;6273036;28;20084;-78
2022/08/21 06:35:24;;;;;;;4.18;1.85;;;;;;;17.16;100.00;101384.19;6273283;28;20501;-79
2022/08/21 06:38:25;;;;;;;4.53;2.30;;;;;;;17.19;100.00;101384.00;6273257;28;20052;-78
2022/08/21 06:41:28;;;;;;;4.72;2.22;;;;;;;17.27;100.00;101394.06;6261448;28;20055;-77
2022/08/21 06:44:30;;;;;;;4.43;1.92;;;;;;;17.35;99.17;101390.84;6249006;28;20049;-78
2022/08/21 06:47:31;;;;;;;3.72;1.70;;;;;;;17.45;98.52;101389.25;6248498;28;20049;-78
2022/08/21 06:50:33;;;;;;;8.27;2.40;;;;;;;17.52;96.79;101381.69;6248340;28;20052;-76
2022/08/21 06:53:35;;;;;;;3.65;1.58;;;;;;;17.57;96.14;101379.53;6247285;28;20060;-77
2022/08/21 06:56:38;;;;;;;5.68;1.98;;;;;;;17.66;93.87;101385.03;6241198;28;20041;-76
2022/08/21 06:59:39;;;;;;;7.57;2.45;;;;;;;17.71;91.96;101382.03;6253495;28;20099;-76
2022/08/21 07:02:40;;;;;;;3.78;2.13;;;;;;;17.79;91.38;101379.69;6242170;28;20053;-76
2022/08/21 07:05:42;;;;;;;8.13;1.95;;;;;;;17.84;90.56;101382.84;6255358;28;20103;-75
2022/08/21 07:08:43;;;;;;;4.47;1.77;;;;;;;17.83;90.58;101386.50;6246798;28;20075;-76
2022/08/21 07:11:49;;;;;;;7.55;1.90;;;;;;;17.88;90.96;101381.66;6252528;28;20069;-76
2022/08/21 07:14:51;;;;;;;3.42;2.00;;;;;;;17.96;89.78;101389.09;6238006;28;20053;-77
2022/08/21 07:17:53;;;;;;;6.25;1.65;;;;;;;18.03;87.96;101384.16;6234769;28;20041;-75
2022/08/21 07:20:55;;;;;;;6.10;1.58;;;;;;;18.11;87.55;101381.78;6240823;28;20061;-75
2022/08/21 07:23:57;;;;;;;3.45;1.20;;;;;;;18.16;86.87;101375.13;6242773;28;20516;-75
2022/08/21 07:26:59;;;;;;;5.60;2.20;;;;;;;18.23;85.97;101372.88;6256151;28;20054;-75
2022/08/21 07:30:00;;;;;;;3.00;1.50;;;;;;;18.29;85.49;101372.41;6240374;28;20053;-74
2022/08/21 07:33:02;;;;;;;5.55;1.92;;;;;;;18.38;85.23;101371.72;6267149;28;20459;-75
2022/08/21 07:36:04;;;;;;;7.28;1.50;;;;;;;18.43;85.56;101369.53;6263092;28;20048;-75
2022/08/21 07:39:05;;;;;;;1.92;1.17;;;;;;;18.55;81.58;101364.25;6275514;28;20052;-75
2022/08/21 07:42:09;;;;;;;6.68;1.10;;;;;;;18.62;81.43;101368.13;6275542;28;20059;-76
2022/08/21 07:45:12;;;;;;;1.70;1.13;;;;;;;18.68;78.39;101354.34;6273181;28;20048;-76
2022/08/21 07:48:13;;;;;;;2.97;1.13;;;;;;;18.78;76.95;101362.50;6263973;28;20041;-76
2022/08/21 07:51:17;;;;;;;2.72;0.75;;;;;;;18.90;72.40;101362.41;6275188;28;20055;-76
2022/08/21 07:54:19;;;;;;;1.15;0.70;;;;;;;18.95;71.04;101349.56;6275524;28;20053;-76
2022/08/21 07:57:22;;;;;;;5.28;1.08;;;;;;;19.04;70.86;101348.00;6250689;28;20049;-76
2022/08/21 08:00:25;;;;;;;1.85;1.08;;;;;;;19.06;70.82;101348.69;6234538;28;20072;-75
2022/08/21 08:03:27;;;;;;;4.80;0.98;;;;;;;19.07;69.73;101345.06;6248861;28;20049;-77
2022/08/21 08:06:29;;;;;;;3.80;0.98;;;;;;;19.20;68.11;101344.94;6260958;28;20042;-77
2022/08/21 08:09:30;;;;;;;2.95;1.10;;;;;;;19.26;67.42;101334.66;6244601;28;20080;-77
2022/08/21 08:12:33;;;;;;;3.80;0.80;;;;;;;19.42;65.65;101344.06;6257796;28;20060;-76
2022/08/21 08:15:34;;;;;;;2.05;0.50;;;;;;;19.58;65.28;101341.00;6250391;28;20425;-77
2022/08/21 08:18:36;;;;;;;1.83;0.75;;;;;;;19.63;64.91;101345.00;6276024;28;20052;-77
2022/08/21 08:21:38;;;;;;;1.90;0.73;;;;;;;19.70;65.11;101354.19;6267882;28;20131;-77
2022/08/21 08:24:39;;;;;;;1.08;0.60;;;;;;;19.77;64.61;101352.72;6266514;28;20092;-77
2022/08/21 08:27:42;;;;;;;2.15;0.70;;;;;;;19.92;62.81;101347.09;6276914;28;20393;-77
2022/08/21 08:30:44;;;;;;;3.00;0.80;;;;;;;19.92;63.64;101337.25;6264532;28;20132;-78
2022/08/21 08:33:45;;;;;;;1.48;0.70;;;;;;;19.92;63.98;101339.94;6252644;28;20064;-78
2022/08/21 08:36:47;;;;;;;7.43;0.90;;;;;;;20.02;62.97;101337.34;6252604;28;20056;-77
2022/08/21 08:39:49;;;;;;;0.88;0.70;;;;;;;20.10;62.64;101339.38;6253477;28;20054;-76
2022/08/21 08:42:51;;;;;;;3.65;0.75;;;;;;;20.17;62.21;101332.56;6251931;28;20052;-78
2022/08/21 08:45:58;;;;;;;5.97;0.90;;;;;;;20.30;62.37;101335.00;6253517;28;20052;-79
2022/08/21 08:49:03;;;;;;;3.22;0.88;;;;;;;20.35;61.68;101333.66;6252718;28;20046;-77
2022/08/21 08:52:11;;;;;;;6.78;0.98;;;;;;;20.47;60.93;101332.63;6251671;28;20111;-77
2022/08/21 08:55:18;;;;;;;1.05;0.68;;;;;;;20.52;61.06;101330.41;6251111;28;20053;-78
2022/08/21 08:58:25;;;;;;;2.38;0.60;;;;;;;20.53;60.55;101331.28;6251267;28;20413;-78
2022/08/21 09:01:26;;;;;;;2.92;1.33;;;;;;;20.60;59.68;101321.72;6253008;28;20065;-77
2022/08/21 09:04:29;;;;;;;5.57;0.95;;;;;;;20.68;59.23;101329.09;6245470;28;20132;-78
2022/08/21 09:07:39;;;;;;;3.33;0.93;;;;;;;20.70;59.45;101311.94;6228791;28;20125;-78
2022/08/21 09:10:54;;;;;;;4.38;0.85;;;;;;;20.70;59.37;101311.09;6234267;28;20125;-78
2022/08/21 09:14:09;;;;;;;2.60;0.50;;;;;;;20.80;58.83;101311.97;6257579;28;20402;-80
2022/08/21 09:17:20;;;;;;;1.23;0.82;;;;;;;20.83;59.24;101316.22;6256284;28;20060;-81
2022/08/21 09:20:30;;;;;;;5.75;0.98;;;;;;;20.81;58.97;101316.34;6255808;28;20049;-80
2022/08/21 09:23:43;;;;;;;6.20;0.80;;;;;;;20.93;58.63;101314.41;6254639;28;20045;-80
2022/08/21 09:26:53;;;;;;;2.40;1.08;;;;;;;21.09;57.43;101319.28;6255270;28;20056;-82
2022/08/21 09:29:57;;;;;;;1.35;0.70;;;;;;;21.11;57.43;101312.78;6253033;28;20045;-79
2022/08/21 09:32:59;;;;;;;2.55;1.02;;;;;;;21.07;57.41;101311.38;6254834;28;20401;-77
2022/08/21 09:36:00;;;;;;;3.75;1.02;;;;;;;21.07;57.91;101306.03;6227726;28;20409;-77
2022/08/21 09:39:02;;;;;;;5.88;0.95;;;;;;;21.15;55.76;101302.69;6228721;28;20065;-77
2022/08/21 09:42:06;;;;;;;3.35;1.15;;;;;;;21.11;55.73;101304.78;6227352;28;20050;-79
2022/08/21 09:45:14;;;;;;;3.33;1.05;;;;;;;21.14;56.98;101309.84;6227755;28;20386;-79
2022/08/21 09:48:19;;;;;;;3.07;0.80;;;;;;;21.18;57.22;101303.25;6227981;28;20180;-79
2022/08/21 09:51:24;;;;;;;3.38;0.95;;;;;;;21.25;57.72;101301.72;6228169;28;20053;-79
2022/08/21 09:54:30;;;;;;;1.70;0.75;;;;;;;21.34;56.88;101302.75;6226687;28;20053;-80
2022/08/21 09:57:41;;;;;;;3.13;0.80;;;;;;;21.38;57.00;101295.28;6227221;28;20410;-79
2022/08/21 10:00:44;;;;;;;2.42;0.90;;;;;;;21.43;56.53;101301.91;6228176;28;20632;-79
2022/08/21 10:03:47;;;;;;;3.83;1.23;;;;;;;21.56;55.35;101293.63;6228943;28;20536;-79
2022/08/21 10:06:48;;;;;;;0.50;0.50;;;;;;;21.70;55.59;101292.38;6249946;28;20050;-78
2022/08/21 10:09:59;;;;;;;4.32;0.82;;;;;;;21.72;55.20;101298.44;6224090;28;20046;-80
2022/08/21 10:13:06;;;;;;;2.88;0.88;;;;;;;21.76;55.37;101292.66;6224454;28;20447;-78
2022/08/21 10:16:23;;;;;;;4.10;0.88;;;;;;;21.74;53.81;101286.59;6223529;28;20061;-79
2022/08/21 10:19:32;;;;;;;3.85;0.73;;;;;;;21.87;54.55;101286.31;6223849;28;20124;-78
2022/08/21 10:22:42;;;;;;;3.92;1.02;;;;;;;22.03;54.35;101286.59;6224045;28;20054;-78
2022/08/21 10:25:50;;;;;;;2.17;0.88;;;;;;;21.98;54.89;101280.81;6246104;28;20053;-78
2022/08/21 10:28:58;;;;;;;4.95;0.90;;;;;;;22.06;54.62;101279.25;6248646;28;20417;-78
2022/08/21 10:32:09;;;;;;;2.70;0.95;;;;;;;22.11;54.03;101288.53;6253474;28;20050;-78
2022/08/21 10:35:18;;;;;;;2.28;0.70;;;;;;;22.07;54.06;101288.97;6248139;28;20049;-77
2022/08/21 10:38:47;;;;;;;3.60;1.15;;;;;;;22.20;53.59;101290.38;6265278;28;20041;-78
2022/08/21 10:42:09;;;;;;;2.92;0.80;;;;;;;22.19;52.03;101280.66;6250010;28;20045;-78
2022/08/21 10:45:17;;;;;;;0.75;0.63;;;;;;;22.27;52.49;101275.44;6248552;28;20060;-78
2022/08/21 10:48:28;;;;;;;1.60;0.70;;;;;;;22.52;52.61;101276.63;6248040;28;20612;-79
2022/08/21 10:51:36;;;;;;;7.07;1.10;;;;;;;22.54;52.11;101268.44;6247263;28;20053;-75
2022/08/21 10:54:47;;;;;;;0.95;0.80;;;;;;;22.56;50.91;101271.81;6247028;28;20054;-78
2022/08/21 10:57:55;;;;;;;0.85;0.57;;;;;;;22.70;51.20;101268.66;6245173;28;20053;-78
2022/08/21 11:01:01;;;;;;;4.03;1.85;;;;;;;22.85;51.51;101273.53;6253759;28;20049;-79
2022/08/21 11:04:12;;;;;;;2.25;0.93;;;;;;;22.99;50.87;101263.19;6247917;28;20053;-78
2022/08/21 11:07:20;;;;;;;1.17;0.70;;;;;;;22.94;50.82;101273.53;6247446;28;20132;-77
2022/08/21 11:10:26;;;;;;;1.73;0.80;;;;;;;23.02;49.96;101264.72;6240753;28;20416;-80
2022/08/21 11:13:36;;;;;;;1.38;0.60;;;;;;;23.15;49.05;101267.03;6236112;28;20510;-77
2022/08/21 11:16:42;;;;;;;2.22;0.80;;;;;;;23.41;48.63;101268.00;6263820;28;20055;-77
2022/08/21 11:19:51;;;;;;;1.45;1.00;;;;;;;23.37;48.59;101261.25;6251638;28;20052;-77
2022/08/21 11:22:57;;;;;;;2.40;0.90;;;;;;;23.25;48.76;101268.66;6249039;28;20420;-78
2022/08/21 11:26:02;;;;;;;1.33;0.60;;;;;;;23.24;48.08;101264.28;6234530;28;20054;-80
2022/08/21 11:29:12;;;;;;;2.42;1.17;;;;;;;23.12;48.65;101268.19;6248573;28;20050;-81
2022/08/21 11:32:36;;;;;;;3.00;0.65;;;;;;;22.89;49.03;101254.38;6244725;28;20053;-78
2022/08/21 11:35:42;;;;;;;1.50;0.80;;;;;;;22.95;49.81;101256.44;6246899;28;20060;-81
2022/08/21 11:38:51;;;;;;;4.35;0.60;;;;;;;22.94;49.99;101251.22;6224029;28;20061;-80
2022/08/21 11:42:02;;;;;;;5.18;0.68;;;;;;;22.88;48.92;101257.97;6223891;28;20128;-78
2022/08/21 11:45:20;;;;;;;4.07;0.77;;;;;;;22.88;49.90;101257.97;6223707;28;20057;-79
2022/08/21 11:48:37;;;;;;;2.10;0.80;;;;;;;23.44;48.30;101248.91;6225424;28;20053;-79
2022/08/21 11:51:47;;;;;;;0.98;0.60;;;;;;;24.15;47.81;101263.25;6250107;28;20407;-79
2022/08/21 11:54:55;;;;;;;2.65;0.75;;;;;;;24.64;44.88;101256.34;6223993;28;20050;-77
2022/08/21 11:58:03;;;;;;;1.83;0.60;;;;;;;25.01;43.33;101258.66;6224754;28;20060;-79
2022/08/21 12:01:07;;;;;;;2.17;0.68;;;;;;;25.27;42.73;101255.06;6231298;28;20425;-78
2022/08/21 12:04:19;;;;;;;1.83;0.68;;;;;;;24.97;43.56;101251.94;6252519;28;20045;-78
2022/08/21 12:07:33;;;;;;;1.83;0.90;;;;;;;25.15;43.63;101248.31;6270537;28;20048;-76
2022/08/21 12:10:37;;;;;;;1.40;0.75;;;;;;;25.65;42.28;101255.44;6272090;28;20049;-76
2022/08/21 12:13:52;;;;;;;2.80;0.70;;;;;;;25.84;41.09;101257.81;6272852;28;20519;-77
2022/08/21 12:17:05;;;;;;;1.55;0.77;;;;;;;25.92;39.35;101263.22;6273319;28;20060;-77
2022/08/21 12:20:18;;;;;;;5.15;1.02;;;;;;;26.11;39.39;101261.16;6255272;28;20060;-79
2022/08/21 12:23:28;;;;;;;2.35;0.75;;;;;;;25.87;40.30;101254.81;6252256;28;20053;-78
2022/08/21 12:26:31;;;;;;;1.23;0.95;;;;;;;25.52;40.56;101255.94;6252081;28;20053;-79
2022/08/21 12:29:37;;;;;;;2.08;0.90;;;;;;;25.80;41.06;101251.13;6252525;28;20053;-79
2022/08/21 12:32:47;;;;;;;1.10;0.75;;;;;;;26.19;39.74;101258.47;6252740;28;20485;-78
2022/08/21 12:35:50;;;;;;;4.38;1.33;;;;;;;26.40;39.63;101249.84;6248148;28;20666;-79
2022/08/21 12:38:57;;;;;;;0.82;0.63;;;;;;;26.13;39.69;101248.38;6265842;28;20130;-78
2022/08/21 12:42:05;;;;;;;3.10;0.93;;;;;;;26.14;40.51;101252.75;6246067;28;20053;-79
2022/08/21 12:45:19;;;;;;;0.80;0.80;;;;;;;25.69;41.56;101246.88;6254749;28;20053;-80
2022/08/21 12:48:26;;;;;;;2.17;1.00;;;;;;;25.63;41.75;101244.84;6255657;28;20068;-76
2022/08/21 12:51:35;;;;;;;2.78;1.23;;;;;;;25.33;42.37;101250.88;6260010;28;20045;-78
2022/08/21 12:54:41;;;;;;;1.05;0.95;;;;;;;24.80;42.23;101239.47;6250921;28;20052;-78
2022/08/21 12:57:43;;;;;;;2.65;1.50;;;;;;;24.53;43.23;101229.78;6251310;28;20398;-79
2022/08/21 13:00:50;;;;;;;3.08;0.93;;;;;;;24.39;43.35;101239.28;6251252;28;20053;-80
2022/08/21 13:03:55;;;;;;;1.35;1.02;;;;;;;24.40;44.40;101235.59;6243216;28;20402;-79
2022/08/21 13:07:00;;;;;;;1.85;0.80;;;;;;;24.35;43.27;101228.97;6244437;28;20064;-80
2022/08/21 13:10:07;;;;;;;1.90;1.15;;;;;;;24.32;43.20;101230.13;6250661;28;20053;-80
2022/08/21 13:13:17;;;;;;;2.28;1.00;;;;;;;24.57;43.85;101232.97;6250762;28;20049;-80
2022/08/21 13:16:21;;;;;;;1.42;0.60;;;;;;;24.54;43.18;101232.28;6250550;28;20057;-80
2022/08/21 13:19:25;;;;;;;2.30;0.90;;;;;;;24.59;44.01;101228.28;6250239;28;20547;-78
2022/08/21 13:22:28;;;;;;;2.05;0.93;;;;;;;24.58;43.79;101234.66;6250452;28;20053;-78
2022/08/21 13:25:35;;;;;;;3.05;1.20;;;;;;;24.50;43.52;101224.72;6250090;28;20390;-79
2022/08/21 13:28:37;;;;;;;2.20;1.00;;;;;;;24.45;44.25;101221.66;6250062;28;20056;-75
2022/08/21 13:31:42;;;;;;;1.35;0.85;;;;;;;24.53;43.88;101233.28;6249795;28;20049;-78
2022/08/21 13:34:43;;;;;;;1.40;0.80;;;;;;;24.50;43.00;101220.19;6250182;28;20053;-78
2022/08/21 13:37:47;;;;;;;1.00;0.90;;;;;;;24.48;42.52;101219.50;6250032;28;20046;-79
2022/08/21 13:40:53;;;;;;;1.63;0.95;;;;;;;24.51;43.11;101215.63;6249880;28;20045;-78
2022/08/21 13:43:59;;;;;;;1.73;1.20;;;;;;;24.84;42.04;101219.28;6249536;28;20057;-79
2022/08/21 13:47:03;;;;;;;1.00;0.90;;;;;;;24.69;42.07;101220.91;6249886;28;20080;-78
2022/08/21 13:50:07;;;;;;;4.03;1.08;;;;;;;24.45;42.51;101216.28;6249284;28;20053;-78
2022/08/21 13:53:23;;;;;;;1.75;1.00;;;;;;;24.52;42.48;101220.00;6240381;28;20045;-78
2022/08/21 13:56:30;;;;;;;2.03;1.33;;;;;;;24.43;41.65;101216.44;6260240;28;20044;-79
2022/08/21 13:59:33;;;;;;;4.22;0.93;;;;;;;25.10;42.17;101221.06;6250100;28;20041;-78
2022/08/21 14:02:39;;;;;;;3.72;1.13;;;;;;;25.58;41.42;101227.53;6232708;28;20049;-76
2022/08/21 14:05:47;;;;;;;3.80;0.90;;;;;;;25.54;40.96;101224.31;6231160;28;20058;-78
2022/08/21 14:08:52;;;;;;;2.58;1.08;;;;;;;25.56;41.51;101216.91;6258552;28;20073;-78
2022/08/21 14:11:55;;;;;;;2.92;1.08;;;;;;;26.09;39.77;101223.63;6243820;28;20053;-78
2022/08/21 14:14:58;;;;;;;1.52;1.10;;;;;;;26.20;39.44;101215.19;6246355;28;20402;-78
2022/08/21 14:18:10;;;;;;;1.25;0.77;;;;;;;26.19;40.28;101213.50;6228175;28;20056;-78